Time;durP1;ratioP1;P1;durP2;ratioP2;P2;SDS_P1;SDS_P2;PMS_P1;PMS_P2;Temp;Humidity;BMP_temperature;BMP_pressure;BME280_temperature;BME280_humidity;BME280_pressure;Samples;Min_cycle;Max_cycle;Signal;HPM_P1;HPM_P2
2023/01/18 00:00:31;;;;;;;23.20;13.03;;;1.70;99.90;;;;;;4906641;29;20527;-69
2023/01/18 00:02:57;;;;;;;23.47;12.97;;;1.80;99.90;;;;;;4905480;29;20921;-69
2023/01/18 00:05:24;;;;;;;19.03;13.07;;;1.70;99.90;;;;;;4907798;29;20194;-69
2023/01/18 00:07:53;;;;;;;20.17;12.83;;;1.80;99.90;;;;;;4910627;29;20327;-69
2023/01/18 00:10:19;;;;;;;17.80;12.47;;;1.70;99.90;;;;;;4911222;29;20436;-69
2023/01/18 00:12:44;;;;;;;22.13;14.00;;;1.80;99.90;;;;;;4913730;29;20454;-69
2023/01/18 00:15:11;;;;;;;20.80;12.93;;;1.80;99.90;;;;;;4902856;29;20552;-71
2023/01/18 00:17:52;;;;;;;21.70;14.57;;;1.80;99.90;;;;;;4898087;29;20188;-71
2023/01/18 00:20:23;;;;;;;24.03;15.07;;;1.70;99.90;;;;;;4898935;29;20426;-73
2023/01/18 00:22:49;;;;;;;22.10;13.77;;;1.70;99.90;;;;;;4899443;29;20467;-70
2023/01/18 00:25:15;;;;;;;21.20;14.47;;;1.70;99.90;;;;;;4880666;29;20963;-69
2023/01/18 00:27:48;;;;;;;23.33;15.27;;;1.80;99.90;;;;;;4903376;29;20450;-69
2023/01/18 00:30:16;;;;;;;25.37;16.40;;;1.80;99.90;;;;;;4906483;29;20478;-69
2023/01/18 00:32:43;;;;;;;23.10;15.37;;;1.80;99.90;;;;;;4906810;29;20488;-69
2023/01/18 00:35:08;;;;;;;25.13;14.67;;;1.80;99.90;;;;;;4904086;29;20445;-69
2023/01/18 00:37:35;;;;;;;22.90;15.30;;;1.80;99.90;;;;;;4902879;29;20448;-69
2023/01/18 00:40:00;;;;;;;25.63;16.10;;;1.80;99.90;;;;;;4901326;29;20528;-70
2023/01/18 00:45:10;;;;;;;21.77;14.80;;;1.80;99.90;;;;;;4898867;29;20652;-69
2023/01/18 00:47:36;;;;;;;28.17;15.23;;;1.80;99.90;;;;;;4900040;29;20480;-69
2023/01/18 00:50:01;;;;;;;19.40;13.80;;;1.90;99.90;;;;;;4902211;29;20196;-69
2023/01/18 00:52:27;;;;;;;38.07;16.40;;;2.00;99.90;;;;;;4903773;29;20271;-69
2023/01/18 00:54:52;;;;;;;22.73;15.57;;;1.90;99.90;;;;;;4905564;29;20195;-69
2023/01/18 00:57:18;;;;;;;20.97;15.23;;;1.80;99.90;;;;;;4906971;29;20668;-69
2023/01/18 00:59:45;;;;;;;23.27;14.70;;;1.80;99.90;;;;;;4908851;29;20195;-70
2023/01/18 01:02:11;;;;;;;24.17;15.70;;;1.80;99.90;;;;;;4910169;29;20234;-70
2023/01/18 01:07:21;;;;;;;23.40;13.93;;;1.80;99.90;;;;;;4914076;29;20441;-69
2023/01/18 01:09:46;;;;;;;24.63;15.70;;;1.80;99.90;;;;;;4898338;29;20443;-70
2023/01/18 01:26:09;;;;;;;25.67;15.87;;;1.60;99.90;;;;;;4910103;29;20446;-70
2023/01/18 01:28:39;;;;;;;23.80;15.83;;;1.60;99.90;;;;;;4904299;29;20943;-69
2023/01/18 05:31:36;;;;;;;20.10;13.80;;;1.10;99.90;;;;;;5400810;23;21033;-68
2023/01/18 05:34:01;;;;;;;24.67;14.40;;;1.10;99.90;;;;;;4904997;29;20459;-69
2023/01/18 05:36:27;;;;;;;23.80;14.00;;;1.20;99.90;;;;;;4903402;29;20183;-69
2023/01/18 05:38:53;;;;;;;25.90;16.50;;;1.20;99.90;;;;;;4900458;29;20714;-69
2023/01/18 05:41:20;;;;;;;27.83;15.73;;;1.20;99.90;;;;;;4905401;29;20286;-69
2023/01/18 05:43:46;;;;;;;22.70;15.70;;;1.20;99.90;;;;;;4917153;29;20502;-82
2023/01/18 05:46:11;;;;;;;24.00;13.50;;;1.10;99.90;;;;;;4916071;29;20924;-71
2023/01/18 05:48:37;;;;;;;31.43;16.00;;;1.10;99.90;;;;;;4912689;29;20556;-71
2023/01/18 05:51:08;;;;;;;23.33;15.30;;;1.10;99.90;;;;;;4911492;29;20635;-70
2023/01/18 05:53:33;;;;;;;28.90;16.33;;;1.10;99.90;;;;;;4902070;29;20200;-69
2023/01/18 05:56:01;;;;;;;30.33;16.47;;;1.10;99.90;;;;;;4904297;29;20449;-70
2023/01/18 05:58:27;;;;;;;29.77;15.40;;;1.10;99.90;;;;;;4905989;29;20195;-72
2023/01/18 06:00:53;;;;;;;33.27;15.47;;;1.20;99.90;;;;;;4904054;29;20433;-69
2023/01/18 06:03:19;;;;;;;28.37;15.00;;;1.20;99.90;;;;;;4907378;29;20685;-70
2023/01/18 06:05:46;;;;;;;21.93;15.50;;;1.20;99.90;;;;;;4904681;29;20445;-70
2023/01/18 06:08:12;;;;;;;19.97;14.00;;;1.20;99.90;;;;;;4899428;29;20490;-70
2023/01/18 06:10:38;;;;;;;21.93;15.20;;;1.20;99.90;;;;;;4904586;29;20436;-69
2023/01/18 06:13:04;;;;;;;25.27;15.50;;;1.20;99.90;;;;;;4902387;29;20674;-69
2023/01/18 06:15:30;;;;;;;22.53;16.30;;;1.20;99.90;;;;;;4898513;29;20860;-69
2023/01/18 06:17:56;;;;;;;26.37;15.40;;;1.20;99.90;;;;;;4908939;29;20447;-70
2023/01/18 06:20:22;;;;;;;31.37;15.63;;;1.10;99.90;;;;;;4904093;29;20236;-70
2023/01/18 06:22:47;;;;;;;26.47;16.17;;;1.10;99.90;;;;;;4905572;29;20872;-69
2023/01/18 06:25:13;;;;;;;29.87;16.10;;;1.30;99.90;;;;;;4914147;29;20211;-69
2023/01/18 06:27:38;;;;;;;24.10;15.90;;;1.40;99.90;;;;;;4913053;29;20180;-69
2023/01/18 06:30:06;;;;;;;30.97;14.43;;;1.40;99.90;;;;;;4913125;29;20574;-69
2023/01/18 06:32:32;;;;;;;32.10;15.10;;;1.40;99.90;;;;;;4912291;29;20231;-70
2023/01/18 06:34:57;;;;;;;30.60;17.30;;;1.40;99.90;;;;;;4911877;29;20443;-68
2023/01/18 06:37:24;;;;;;;24.53;15.23;;;1.30;99.90;;;;;;4902113;29;20444;-68
2023/01/18 06:39:50;;;;;;;27.20;15.20;;;1.30;99.90;;;;;;4896601;29;20637;-68
2023/01/18 06:42:15;;;;;;;22.30;17.10;;;1.30;99.90;;;;;;4899587;29;20536;-69
2023/01/18 06:44:41;;;;;;;36.13;22.73;;;1.30;99.90;;;;;;4900034;29;20220;-69
2023/01/18 06:47:06;;;;;;;29.97;17.20;;;1.30;99.90;;;;;;4903704;29;20184;-69
2023/01/18 06:49:32;;;;;;;27.07;15.37;;;1.30;99.90;;;;;;4907297;29;20195;-69
2023/01/18 06:51:57;;;;;;;27.50;18.27;;;1.30;99.90;;;;;;4908791;29;20590;-69
2023/01/18 06:54:23;;;;;;;35.20;21.83;;;1.30;99.90;;;;;;4910480;29;20198;-70
2023/01/18 06:56:48;;;;;;;34.63;21.60;;;1.30;99.90;;;;;;4912083;29;20188;-69
2023/01/18 06:59:14;;;;;;;31.07;21.40;;;1.40;99.90;;;;;;4914164;29;20188;-69
2023/01/18 07:01:40;;;;;;;42.53;23.87;;;1.40;99.90;;;;;;4915646;29;20191;-69
2023/01/18 07:04:05;;;;;;;31.93;18.70;;;1.40;99.90;;;;;;4917442;29;20194;-70
2023/01/18 07:06:31;;;;;;;30.23;17.40;;;1.40;99.90;;;;;;4918762;29;20187;-69
2023/01/18 07:08:56;;;;;;;36.50;21.40;;;1.40;99.90;;;;;;4917612;29;20334;-69
2023/01/18 07:11:22;;;;;;;36.70;21.73;;;1.40;99.90;;;;;;4915896;29;20219;-69
2023/01/18 07:13:48;;;;;;;26.17;17.80;;;1.40;99.90;;;;;;4913635;29;20191;-69
2023/01/18 07:16:16;;;;;;;24.43;16.23;;;1.40;99.90;;;;;;4906894;29;20316;-69
2023/01/18 07:18:47;;;;;;;26.83;16.20;;;1.40;99.90;;;;;;4908271;29;20428;-69
2023/01/18 07:21:14;;;;;;;32.87;19.23;;;1.30;99.90;;;;;;4910194;29;20538;-69
2023/01/18 07:23:40;;;;;;;25.77;16.07;;;1.30;99.90;;;;;;4911929;29;20491;-68
2023/01/18 07:26:09;;;;;;;26.97;16.23;;;1.40;99.90;;;;;;4913269;29;20443;-69
2023/01/18 07:28:35;;;;;;;32.63;17.37;;;1.30;99.90;;;;;;4914865;29;20844;-68
2023/01/18 07:31:02;;;;;;;32.73;18.47;;;1.30;99.90;;;;;;4916379;29;20501;-68
2023/01/18 07:33:29;;;;;;;27.97;15.93;;;1.30;99.90;;;;;;4918210;29;20862;-69
2023/01/18 07:35:56;;;;;;;24.63;16.60;;;1.40;99.90;;;;;;4917632;29;20790;-68
2023/01/18 07:38:22;;;;;;;25.50;18.17;;;1.40;99.90;;;;;;4915607;29;20518;-68
2023/01/18 07:40:48;;;;;;;33.77;19.37;;;1.40;99.90;;;;;;4914017;29;20532;-68
2023/01/18 07:43:14;;;;;;;32.47;17.23;;;1.40;99.90;;;;;;4912340;29;20467;-68
2023/01/18 07:45:40;;;;;;;33.87;19.67;;;1.40;99.90;;;;;;4907883;29;20848;-69
2023/01/18 07:48:06;;;;;;;27.27;16.67;;;1.40;99.90;;;;;;4909546;29;20440;-68
2023/01/18 07:50:34;;;;;;;29.43;17.70;;;1.50;99.90;;;;;;4910741;29;20487;-68
2023/01/18 07:53:08;;;;;;;28.50;15.43;;;1.50;99.90;;;;;;4912515;29;20190;-68
2023/01/18 07:55:34;;;;;;;26.33;16.50;;;1.50;99.90;;;;;;4903613;29;20432;-69
2023/01/18 07:58:00;;;;;;;26.20;16.83;;;1.50;99.90;;;;;;4900670;29;20459;-69
2023/01/18 08:00:27;;;;;;;33.80;16.27;;;1.50;99.90;;;;;;4902214;29;20451;-69
2023/01/18 08:02:53;;;;;;;26.17;16.97;;;1.50;99.90;;;;;;4917037;29;20517;-69
2023/01/18 08:05:22;;;;;;;25.83;18.30;;;1.50;99.90;;;;;;4915531;29;20519;-68
2023/01/18 08:07:49;;;;;;;30.63;16.73;;;1.50;99.90;;;;;;4913805;29;20450;-69
2023/01/18 08:10:16;;;;;;;28.43;15.97;;;1.50;99.90;;;;;;4911926;29;20501;-69
2023/01/18 08:12:42;;;;;;;32.60;18.50;;;1.50;99.90;;;;;;4909973;29;20451;-69
2023/01/18 08:15:08;;;;;;;33.80;15.43;;;1.50;99.90;;;;;;4908655;29;20437;-69
2023/01/18 08:17:34;;;;;;;30.63;16.03;;;1.50;99.90;;;;;;4906972;29;20198;-69
2023/01/18 08:19:59;;;;;;;29.47;17.20;;;1.50;99.90;;;;;;4904974;29;20954;-68
2023/01/18 08:22:25;;;;;;;41.20;17.87;;;1.50;99.90;;;;;;4903279;29;20567;-69
2023/01/18 08:24:51;;;;;;;28.50;17.23;;;1.50;99.90;;;;;;4901635;29;20180;-69
2023/01/18 08:27:16;;;;;;;30.87;17.37;;;1.60;99.90;;;;;;4900240;29;20698;-69
2023/01/18 08:29:42;;;;;;;41.13;19.60;;;1.60;99.90;;;;;;4882852;29;20685;-68
2023/01/18 08:32:07;;;;;;;32.83;18.33;;;1.60;99.90;;;;;;4901024;29;20238;-69
2023/01/18 08:34:33;;;;;;;30.47;17.27;;;1.60;99.90;;;;;;4902941;29;20184;-69
2023/01/18 08:36:58;;;;;;;28.03;17.83;;;1.60;99.90;;;;;;4904587;29;20555;-69
2023/01/18 08:39:24;;;;;;;29.93;17.23;;;1.60;99.90;;;;;;4905904;29;20744;-68
2023/01/18 08:41:50;;;;;;;29.33;18.73;;;1.60;99.90;;;;;;4907591;29;20216;-68
2023/01/18 08:44:15;;;;;;;25.33;18.73;;;1.60;99.90;;;;;;4909229;29;20195;-69
2023/01/18 08:46:41;;;;;;;40.67;21.90;;;1.60;99.90;;;;;;4910724;29;20254;-69
2023/01/18 08:49:06;;;;;;;27.70;17.60;;;1.70;99.90;;;;;;4912517;29;20187;-69
2023/01/18 08:51:32;;;;;;;31.07;18.00;;;1.70;99.90;;;;;;4913886;29;20190;-70
2023/01/18 08:53:58;;;;;;;29.93;20.03;;;1.70;99.90;;;;;;4915896;29;20190;-70
2023/01/18 08:56:24;;;;;;;32.37;18.60;;;1.80;99.90;;;;;;4899067;29;20195;-70
2023/01/18 08:58:53;;;;;;;32.93;20.00;;;1.90;99.90;;;;;;4900114;29;20808;-70
2023/01/18 09:01:20;;;;;;;31.20;19.23;;;2.00;99.90;;;;;;4901833;29;20434;-70
2023/01/18 09:03:47;;;;;;;30.47;18.10;;;2.10;99.90;;;;;;4903420;29;20731;-70
2023/01/18 09:06:13;;;;;;;33.77;18.97;;;2.20;99.90;;;;;;4905099;29;20436;-70
2023/01/18 09:08:38;;;;;;;30.60;17.53;;;2.30;99.90;;;;;;4906527;29;20587;-70
2023/01/18 09:11:06;;;;;;;26.43;18.23;;;2.40;99.90;;;;;;4909718;29;20195;-71
2023/01/18 09:13:32;;;;;;;29.90;18.83;;;2.50;99.90;;;;;;4904863;29;20252;-71
2023/01/18 09:16:04;;;;;;;32.20;18.30;;;2.50;99.90;;;;;;4903380;29;20472;-69
2023/01/18 09:18:30;;;;;;;28.87;16.73;;;2.50;99.90;;;;;;4901317;29;20198;-69
2023/01/18 09:20:57;;;;;;;27.33;17.70;;;2.50;99.90;;;;;;4899733;29;20444;-69
2023/01/18 09:23:23;;;;;;;27.10;18.60;;;2.50;99.90;;;;;;4898198;29;20482;-69
2023/01/18 09:26:05;;;;;;;29.20;18.23;;;2.60;99.90;;;;;;4899334;29;20448;-69
2023/01/18 09:28:31;;;;;;;30.80;19.87;;;2.60;99.90;;;;;;4901485;29;20518;-69
2023/01/18 09:31:08;;;;;;;28.60;17.60;;;2.60;99.90;;;;;;4902862;29;20825;-69
2023/01/18 09:33:35;;;;;;;29.53;18.10;;;2.60;99.90;;;;;;4909819;29;20439;-69
2023/01/18 09:36:04;;;;;;;24.67;18.10;;;2.60;99.90;;;;;;4908077;29;20580;-70
2023/01/18 09:38:30;;;;;;;26.70;18.33;;;2.70;99.90;;;;;;4906053;29;20941;-70
2023/01/18 09:40:57;;;;;;;29.63;18.27;;;2.70;99.90;;;;;;4897674;29;20436;-70
2023/01/18 09:43:29;;;;;;;36.43;19.70;;;2.70;99.90;;;;;;4911281;29;21053;-70
2023/01/18 09:45:55;;;;;;;32.70;19.73;;;2.80;99.90;;;;;;4900825;29;20551;-70
2023/01/18 09:48:31;;;;;;;23.50;19.10;;;2.80;99.90;;;;;;4899170;29;20437;-69
2023/01/18 09:51:06;;;;;;;27.83;18.70;;;2.80;99.90;;;;;;4898172;29;20447;-70
2023/01/18 09:54:10;;;;;;;30.00;17.27;;;2.90;99.90;;;;;;4902563;29;20429;-69
2023/01/18 09:56:52;;;;;;;29.57;18.90;;;3.00;99.90;;;;;;4835823;29;20506;-69
2023/01/18 09:59:32;;;;;;;35.40;20.17;;;2.90;99.90;;;;;;4834223;29;20536;-69
2023/01/18 10:02:02;;;;;;;30.73;20.53;;;2.90;99.90;;;;;;4880426;29;20525;-69
2023/01/18 10:04:35;;;;;;;23.23;17.50;;;2.90;99.90;;;;;;4906764;29;20472;-69
2023/01/18 10:07:12;;;;;;;25.57;18.20;;;3.00;99.90;;;;;;4905229;29;20502;-69
2023/01/18 10:09:48;;;;;;;26.83;18.57;;;3.00;99.90;;;;;;4910214;29;20549;-70
2023/01/18 10:12:19;;;;;;;28.10;18.83;;;3.10;99.90;;;;;;4901520;29;20531;-69
2023/01/18 10:14:48;;;;;;;26.20;19.90;;;3.20;99.90;;;;;;4899911;29;20444;-69
2023/01/18 10:17:23;;;;;;;27.27;18.00;;;3.20;99.90;;;;;;4898399;29;20760;-69
2023/01/18 10:19:49;;;;;;;21.10;17.00;;;3.30;99.90;;;;;;4898795;29;20520;-69
2023/01/18 10:22:45;;;;;;;24.03;16.37;;;3.40;99.90;;;;;;4903321;29;20478;-69
2023/01/18 10:25:23;;;;;;;27.87;18.03;;;3.40;99.90;;;;;;4910593;29;20475;-69
2023/01/18 10:27:49;;;;;;;27.47;18.50;;;3.50;99.90;;;;;;4913056;29;20526;-69
2023/01/18 10:30:29;;;;;;;25.37;18.13;;;3.50;99.90;;;;;;4911423;29;20511;-69
2023/01/18 10:33:01;;;;;;;24.47;18.00;;;3.50;99.90;;;;;;4911061;29;20202;-70
2023/01/18 10:35:33;;;;;;;29.40;18.67;;;3.60;99.90;;;;;;4908247;29;20447;-70
2023/01/18 10:38:03;;;;;;;27.20;18.10;;;3.70;99.90;;;;;;4906014;29;20440;-70
2023/01/18 10:40:29;;;;;;;23.30;17.53;;;3.70;99.90;;;;;;4904584;29;20436;-70
2023/01/18 10:42:58;;;;;;;25.80;16.20;;;3.70;99.90;;;;;;4902494;29;20847;-70
2023/01/18 10:45:27;;;;;;;22.70;16.43;;;3.90;99.90;;;;;;4915858;29;20195;-70
2023/01/18 10:47:55;;;;;;;24.83;16.37;;;3.90;99.90;;;;;;4917639;29;20954;-70
2023/01/18 10:50:23;;;;;;;26.37;15.83;;;3.90;99.90;;;;;;4915918;29;20442;-70
2023/01/18 10:52:49;;;;;;;21.20;15.67;;;4.00;99.90;;;;;;4914480;29;20914;-70
2023/01/18 10:55:18;;;;;;;24.67;16.10;;;4.00;99.90;;;;;;4912623;29;20565;-70
2023/01/18 10:57:50;;;;;;;33.70;15.40;;;4.10;99.90;;;;;;4898916;29;20565;-70
2023/01/18 11:00:34;;;;;;;20.93;15.90;;;4.20;99.90;;;;;;4910762;29;20444;-70
2023/01/18 11:03:03;;;;;;;23.27;16.27;;;4.30;99.90;;;;;;4912807;29;20573;-70
2023/01/18 11:05:44;;;;;;;35.53;16.17;;;4.30;99.90;;;;;;4914301;29;20468;-70
2023/01/18 11:08:24;;;;;;;21.80;15.00;;;4.40;99.90;;;;;;4916408;29;20992;-70
2023/01/18 11:11:03;;;;;;;23.13;15.80;;;4.50;99.90;;;;;;4901833;29;20439;-70
2023/01/18 11:13:46;;;;;;;23.23;16.80;;;4.70;99.90;;;;;;4900883;29;20437;-70
2023/01/18 11:16:12;;;;;;;27.77;16.20;;;4.60;99.90;;;;;;4902590;29;20800;-70
2023/01/18 11:18:56;;;;;;;23.27;16.30;;;4.60;99.90;;;;;;4904058;29;20438;-70
2023/01/18 11:21:22;;;;;;;25.57;14.60;;;4.60;99.90;;;;;;4905989;29;20195;-69
2023/01/18 11:23:50;;;;;;;21.27;15.70;;;4.60;99.90;;;;;;4907782;29;20479;-70
2023/01/18 11:26:18;;;;;;;23.23;17.00;;;4.60;99.90;;;;;;4892886;29;20816;-70
2023/01/18 11:28:56;;;;;;;24.80;15.20;;;4.60;99.90;;;;;;4911229;29;20443;-70
2023/01/18 11:31:24;;;;;;;21.77;14.50;;;4.60;99.90;;;;;;4912276;29;20455;-69
2023/01/18 11:33:54;;;;;;;21.30;16.13;;;4.70;99.90;;;;;;4912612;29;20437;-70
2023/01/18 11:36:37;;;;;;;21.80;15.17;;;4.80;99.90;;;;;;4902531;29;20438;-70
2023/01/18 11:39:24;;;;;;;24.30;16.10;;;4.80;99.90;;;;;;4900886;29;20496;-69
2023/01/18 11:41:49;;;;;;;19.77;15.03;;;4.90;99.90;;;;;;4900707;29;20543;-70
2023/01/18 11:44:22;;;;;;;19.57;15.00;;;5.00;99.90;;;;;;4902790;29;21006;-70
2023/01/18 11:46:56;;;;;;;21.00;16.17;;;5.20;99.90;;;;;;4913721;29;20827;-70
2023/01/18 11:50:00;;;;;;;20.20;14.43;;;5.30;99.90;;;;;;4906243;29;20439;-70
2023/01/18 11:52:29;;;;;;;19.87;13.60;;;5.40;99.90;;;;;;4904313;29;20451;-70
2023/01/18 11:54:59;;;;;;;18.90;13.77;;;5.50;99.90;;;;;;4909689;29;20431;-70
2023/01/18 11:57:26;;;;;;;20.47;14.70;;;5.70;99.90;;;;;;4911367;29;20444;-70
2023/01/18 11:59:53;;;;;;;24.43;14.07;;;5.80;99.90;;;;;;4909461;29;20982;-70
2023/01/18 12:02:37;;;;;;;21.53;13.97;;;6.00;99.90;;;;;;4902887;29;20473;-70
2023/01/18 12:05:37;;;;;;;21.70;14.27;;;6.10;99.90;;;;;;4901100;29;20432;-70
2023/01/18 12:08:30;;;;;;;19.60;13.20;;;6.30;99.90;;;;;;4913168;29;20436;-70
2023/01/18 12:11:18;;;;;;;20.43;12.23;;;6.50;99.90;;;;;;4915780;29;20943;-73
2023/01/18 12:13:59;;;;;;;20.90;13.23;;;6.70;99.90;;;;;;4903401;29;20549;-71
2023/01/18 12:17:00;;;;;;;16.60;12.07;;;7.10;99.90;;;;;;4907937;29;20218;-72
2023/01/18 12:19:54;;;;;;;19.10;13.30;;;7.30;99.90;;;;;;4882909;29;20934;-72
2023/01/18 12:22:44;;;;;;;18.33;11.83;;;7.30;99.90;;;;;;4907755;29;20484;-72
2023/01/18 12:26:01;;;;;;;13.90;11.20;;;7.30;99.90;;;;;;4911149;29;20851;-72
2023/01/18 12:29:05;;;;;;;21.07;12.40;;;7.30;99.90;;;;;;4910165;29;20462;-69
2023/01/18 12:32:09;;;;;;;16.50;11.73;;;7.10;99.90;;;;;;4915270;29;21005;-69
2023/01/18 12:34:57;;;;;;;19.20;11.63;;;7.00;99.90;;;;;;4899063;29;20936;-71
2023/01/18 12:37:34;;;;;;;19.93;11.50;;;6.90;99.90;;;;;;4900494;29;20445;-71
2023/01/18 12:40:06;;;;;;;16.10;11.80;;;6.90;99.90;;;;;;4902386;29;20455;-71
2023/01/18 12:42:57;;;;;;;17.00;11.33;;;6.90;99.90;;;;;;4912089;29;20470;-71
2023/01/18 12:45:41;;;;;;;16.50;12.40;;;6.80;99.90;;;;;;4909819;29;20522;-71
2023/01/18 12:48:13;;;;;;;20.33;10.77;;;6.80;99.90;;;;;;4907841;29;20435;-71
2023/01/18 12:50:42;;;;;;;14.50;10.20;;;6.90;99.90;;;;;;4909610;29;20436;-71
2023/01/18 12:53:37;;;;;;;17.33;10.80;;;6.90;99.90;;;;;;4911050;29;20444;-72
2023/01/18 12:56:16;;;;;;;10.67;8.13;;;7.00;99.90;;;;;;4913300;29;20531;-71
2023/01/18 12:58:42;;;;;;;14.40;8.97;;;7.20;99.90;;;;;;4915023;29;20483;-71
2023/01/18 13:01:17;;;;;;;10.60;7.87;;;7.30;99.90;;;;;;4916782;29;20498;-71
2023/01/18 13:03:46;;;;;;;11.83;8.67;;;7.20;99.90;;;;;;4915904;29;20518;-71
2023/01/18 13:06:13;;;;;;;10.03;7.37;;;7.00;99.90;;;;;;4906491;29;20441;-71
2023/01/18 13:08:45;;;;;;;12.40;8.13;;;7.10;99.90;;;;;;4902906;29;20463;-71
2023/01/18 13:11:16;;;;;;;12.87;8.03;;;7.10;99.90;;;;;;4904453;29;21015;-71
2023/01/18 13:13:46;;;;;;;13.23;8.83;;;7.00;99.90;;;;;;4906123;29;20466;-71
2023/01/18 13:16:31;;;;;;;12.33;8.07;;;7.10;99.90;;;;;;4908120;29;20424;-72
2023/01/18 13:19:11;;;;;;;11.10;7.57;;;7.20;99.90;;;;;;4909610;29;20508;-71
2023/01/18 13:21:36;;;;;;;13.30;8.87;;;7.20;99.90;;;;;;4903216;29;20444;-71
2023/01/18 13:24:10;;;;;;;10.10;7.10;;;7.30;99.90;;;;;;4901509;29;20487;-71
2023/01/18 13:26:36;;;;;;;10.60;7.53;;;7.40;99.90;;;;;;4899872;29;20247;-71
2023/01/18 13:29:27;;;;;;;10.20;7.70;;;7.40;99.90;;;;;;4916357;29;20455;-72
2023/01/18 13:31:52;;;;;;;11.60;8.57;;;7.40;99.90;;;;;;4899284;29;20665;-71
2023/01/18 13:34:30;;;;;;;10.30;8.30;;;7.50;99.90;;;;;;4901226;29;20505;-71
2023/01/18 13:36:57;;;;;;;19.60;8.10;;;7.70;99.90;;;;;;4902974;29;20224;-71
2023/01/18 13:39:24;;;;;;;15.77;8.80;;;7.70;99.90;;;;;;4904826;29;20427;-71
2023/01/18 13:42:07;;;;;;;10.37;6.70;;;7.80;99.90;;;;;;4906087;29;20447;-71
2023/01/18 13:44:41;;;;;;;8.87;6.50;;;8.00;99.90;;;;;;4908094;29;20492;-71
2023/01/18 13:47:38;;;;;;;13.73;8.03;;;8.10;99.90;;;;;;4910073;29;20435;-71
2023/01/18 13:50:38;;;;;;;13.23;6.87;;;8.20;99.90;;;;;;4912223;29;20531;-71
2023/01/18 13:53:12;;;;;;;15.70;7.33;;;8.20;99.90;;;;;;4910336;29;20483;-71
2023/01/18 13:55:53;;;;;;;11.63;6.87;;;8.30;99.90;;;;;;4917721;29;20441;-71
2023/01/18 13:58:28;;;;;;;11.97;6.90;;;8.30;99.90;;;;;;4919265;29;20575;-71
2023/01/18 14:01:05;;;;;;;11.20;6.13;;;8.30;99.90;;;;;;4917597;29;20446;-71
2023/01/18 14:03:37;;;;;;;8.17;5.80;;;8.20;99.90;;;;;;4915685;29;20880;-71
2023/01/18 14:06:11;;;;;;;9.00;6.50;;;8.10;99.90;;;;;;4913928;29;20452;-71
2023/01/18 14:08:46;;;;;;;15.60;6.33;;;7.90;99.90;;;;;;4911857;29;20450;-71
2023/01/18 14:11:26;;;;;;;8.87;6.30;;;7.70;99.90;;;;;;4911216;29;20763;-70
2023/01/18 14:13:51;;;;;;;12.73;6.97;;;7.50;99.90;;;;;;4906441;29;20875;-71
2023/01/18 14:16:27;;;;;;;14.03;8.17;;;7.30;99.90;;;;;;4905257;29;20467;-70
2023/01/18 14:19:15;;;;;;;9.33;6.50;;;7.10;99.90;;;;;;4903406;29;20271;-70
2023/01/18 14:22:08;;;;;;;13.40;7.87;;;6.90;99.90;;;;;;4901580;29;20435;-70
2023/01/18 14:24:49;;;;;;;12.60;6.73;;;6.80;99.90;;;;;;4913472;29;20447;-69
2023/01/18 14:27:21;;;;;;;9.83;6.97;;;6.70;99.90;;;;;;4907108;29;20487;-69
2023/01/18 14:30:05;;;;;;;8.37;6.53;;;6.60;99.90;;;;;;4909140;29;20431;-68
2023/01/18 14:32:36;;;;;;;16.40;7.33;;;6.60;99.90;;;;;;4908025;29;20566;-71
2023/01/18 14:35:16;;;;;;;14.13;7.33;;;6.50;99.90;;;;;;4906836;29;20467;-71
2023/01/18 14:37:42;;;;;;;18.20;7.93;;;6.30;99.90;;;;;;4908286;29;20698;-71
2023/01/18 14:40:16;;;;;;;15.67;9.03;;;6.30;99.90;;;;;;4906909;29;20522;-71
2023/01/18 14:42:48;;;;;;;14.93;8.00;;;6.20;99.90;;;;;;4912612;29;20254;-72
2023/01/18 14:45:21;;;;;;;10.70;6.80;;;6.20;99.90;;;;;;4908570;29;20480;-73
2023/01/18 14:47:46;;;;;;;11.47;8.13;;;6.20;99.90;;;;;;4902786;29;20807;-71
2023/01/18 14:50:18;;;;;;;13.37;8.83;;;6.20;99.90;;;;;;4900105;29;20440;-71
2023/01/18 14:52:46;;;;;;;18.53;8.10;;;6.20;99.90;;;;;;4899943;29;20196;-70
2023/01/18 14:55:29;;;;;;;10.03;7.77;;;6.10;99.90;;;;;;4915256;29;20431;-69
2023/01/18 14:58:11;;;;;;;12.87;8.57;;;6.10;99.90;;;;;;4903505;29;20482;-70
2023/01/18 15:01:03;;;;;;;13.57;9.00;;;6.10;99.90;;;;;;4906086;29;20515;-72
2023/01/18 15:03:30;;;;;;;16.97;8.70;;;6.00;99.90;;;;;;4889017;29;20540;-70
2023/01/18 15:06:23;;;;;;;15.27;7.70;;;6.00;99.90;;;;;;4907564;29;20934;-69
2023/01/18 15:08:49;;;;;;;15.83;9.30;;;5.80;99.90;;;;;;4896975;29;21023;-70
2023/01/18 15:11:15;;;;;;;14.73;9.63;;;5.80;99.90;;;;;;4904011;29;20440;-70
2023/01/18 15:13:52;;;;;;;14.27;9.70;;;5.70;99.90;;;;;;4912010;29;20648;-70
2023/01/18 15:16:21;;;;;;;10.60;8.00;;;5.70;99.90;;;;;;4900528;29;20444;-70
2023/01/18 15:18:48;;;;;;;14.23;8.97;;;5.80;99.90;;;;;;4899024;29;20444;-70
2023/01/18 15:21:27;;;;;;;14.63;9.30;;;5.80;99.90;;;;;;4900326;29;20465;-70
2023/01/18 15:24:00;;;;;;;15.50;9.37;;;5.70;99.90;;;;;;4902033;29;20515;-70
2023/01/18 15:26:41;;;;;;;14.90;9.40;;;5.60;99.90;;;;;;4903768;29;20439;-69
2023/01/18 15:29:29;;;;;;;12.97;8.90;;;5.50;99.90;;;;;;4910044;29;20471;-72
2023/01/18 15:32:13;;;;;;;20.00;9.53;;;5.50;99.90;;;;;;4908463;29;20991;-69
2023/01/18 15:34:42;;;;;;;15.90;9.33;;;5.50;99.90;;;;;;4908173;29;20527;-68
2023/01/18 15:37:23;;;;;;;11.73;7.90;;;5.40;99.90;;;;;;4904488;29;20516;-71
2023/01/18 15:40:14;;;;;;;14.73;9.30;;;5.50;99.90;;;;;;4913149;29;20447;-70
2023/01/18 15:42:52;;;;;;;17.23;9.30;;;5.40;99.90;;;;;;4897947;29;20491;-71
2023/01/18 15:45:31;;;;;;;16.20;9.73;;;5.30;99.90;;;;;;4901181;29;20499;-70
2023/01/18 15:48:04;;;;;;;14.47;8.77;;;5.30;99.90;;;;;;4905463;29;20439;-71
2023/01/18 15:50:41;;;;;;;12.93;8.83;;;5.30;99.90;;;;;;4901285;29;20445;-71
2023/01/18 15:53:16;;;;;;;11.43;8.47;;;5.30;99.90;;;;;;4903696;29;20781;-72
2023/01/18 15:55:49;;;;;;;11.70;8.37;;;5.30;99.90;;;;;;4909213;29;20431;-71
2023/01/18 15:58:42;;;;;;;17.53;9.37;;;5.20;99.90;;;;;;4907168;29;20445;-72
2023/01/18 16:01:16;;;;;;;12.70;8.33;;;5.10;99.90;;;;;;4909116;29;20585;-71
2023/01/18 16:03:47;;;;;;;13.23;9.30;;;5.10;99.90;;;;;;4907826;29;20844;-72
2023/01/18 16:06:15;;;;;;;14.57;9.10;;;5.00;99.90;;;;;;4903276;29;20436;-72
2023/01/18 16:09:09;;;;;;;14.10;8.43;;;5.00;99.90;;;;;;4901354;29;20447;-71
2023/01/18 16:11:43;;;;;;;15.67;8.80;;;5.00;99.90;;;;;;4899634;29;20523;-72
2023/01/18 16:14:32;;;;;;;11.60;7.93;;;4.90;99.90;;;;;;4898900;29;20530;-72
2023/01/18 16:17:07;;;;;;;15.80;9.13;;;4.90;99.90;;;;;;4900832;29;20482;-72
2023/01/18 16:19:41;;;;;;;13.20;8.23;;;4.80;99.90;;;;;;4901589;29;20932;-72
2023/01/18 16:22:28;;;;;;;13.97;9.80;;;4.90;99.90;;;;;;4910697;29;20431;-72
2023/01/18 16:24:55;;;;;;;13.93;8.30;;;4.80;99.90;;;;;;4908654;29;20450;-71
2023/01/18 16:27:23;;;;;;;17.03;10.13;;;4.70;99.90;;;;;;4907392;29;20433;-71
2023/01/18 16:29:58;;;;;;;19.93;10.83;;;4.60;99.90;;;;;;4905660;29;20451;-72
2023/01/18 16:32:23;;;;;;;16.27;9.70;;;4.60;99.90;;;;;;4903466;29;20512;-71
2023/01/18 16:34:53;;;;;;;22.63;13.00;;;4.60;99.90;;;;;;4902167;29;20583;-72
2023/01/18 16:37:19;;;;;;;16.03;10.33;;;4.60;99.90;;;;;;4900539;29;20214;-72
2023/01/18 16:39:45;;;;;;;17.10;9.73;;;4.50;99.90;;;;;;4898638;29;20851;-72
2023/01/18 16:42:11;;;;;;;12.00;8.80;;;4.50;99.90;;;;;;4898845;29;20500;-73
2023/01/18 16:44:42;;;;;;;14.17;9.87;;;4.50;99.90;;;;;;4901211;29;20245;-71
2023/01/18 16:47:12;;;;;;;18.53;8.37;;;4.50;99.90;;;;;;4903372;29;20427;-71
2023/01/18 16:49:39;;;;;;;11.80;7.60;;;4.40;99.90;;;;;;4904002;29;20437;-72
2023/01/18 16:52:12;;;;;;;10.43;7.93;;;4.40;99.90;;;;;;4905517;29;21116;-72
2023/01/18 16:54:38;;;;;;;13.57;8.13;;;4.50;99.90;;;;;;4907471;29;20549;-72
2023/01/18 16:57:04;;;;;;;13.47;8.50;;;4.50;99.90;;;;;;4909102;29;20448;-70
2023/01/18 16:59:30;;;;;;;12.73;9.00;;;4.50;99.90;;;;;;4910683;29;20508;-73
2023/01/18 17:01:55;;;;;;;12.23;7.83;;;4.50;99.90;;;;;;4912358;29;20214;-73
2023/01/18 17:04:21;;;;;;;14.53;6.60;;;4.50;99.90;;;;;;4914035;29;20681;-73
2023/01/18 17:06:46;;;;;;;13.90;8.73;;;4.50;99.90;;;;;;4915389;29;20201;-71
2023/01/18 17:09:24;;;;;;;19.10;10.40;;;4.40;99.90;;;;;;4915626;29;20196;-72
2023/01/18 17:11:51;;;;;;;12.83;8.00;;;4.40;99.90;;;;;;4913761;29;20187;-72
2023/01/18 17:14:17;;;;;;;9.30;6.53;;;4.30;99.90;;;;;;4911979;29;20444;-71
2023/01/18 17:16:43;;;;;;;11.73;7.73;;;4.30;99.90;;;;;;4909845;29;20470;-72
2023/01/18 17:19:13;;;;;;;13.07;6.83;;;4.40;99.90;;;;;;4906341;29;20435;-73
2023/01/18 17:21:40;;;;;;;10.93;8.20;;;4.40;99.90;;;;;;4906279;29;20475;-72
2023/01/18 17:24:06;;;;;;;12.90;6.83;;;4.30;99.90;;;;;;4907961;29;20483;-72